sensor_id;sensor_type;location;lat;lon;timestamp;pressure;altitude;pressure_sealevel;temperature;humidity
40245;BME280;25963;42.694;23.600;2023-02-11T00:00:04;96904.53;;;-7.76;92.23
40245;BME280;25963;42.694;23.600;2023-02-11T00:02:31;96901.19;;;-7.78;90.44
40245;BME280;25963;42.694;23.600;2023-02-11T00:04:57;96895.09;;;-7.75;89.71
40245;BME280;25963;42.694;23.600;2023-02-11T00:07:23;96905.69;;;-7.83;89.77
40245;BME280;25963;42.694;23.600;2023-02-11T00:09:49;96901.63;;;-7.89;90.90
40245;BME280;25963;42.694;23.600;2023-02-11T00:12:14;96903.25;;;-7.86;89.92
40245;BME280;25963;42.694;23.600;2023-02-11T00:14:40;96899.06;;;-7.89;89.78
40245;BME280;25963;42.694;23.600;2023-02-11T00:17:05;96899.94;;;-7.90;89.93
40245;BME280;25963;42.694;23.600;2023-02-11T00:19:31;96901.50;;;-7.86;89.96
40245;BME280;25963;42.694;23.600;2023-02-11T00:21:56;96900.97;;;-7.94;90.33
40245;BME280;25963;42.694;23.600;2023-02-11T00:24:22;96905.94;;;-7.89;90.97
40245;BME280;25963;42.694;23.600;2023-02-11T00:26:47;96902.00;;;-7.98;90.73
40245;BME280;25963;42.694;23.600;2023-02-11T00:29:12;96896.72;;;-8.15;90.59
40245;BME280;25963;42.694;23.600;2023-02-11T00:31:38;96904.81;;;-8.04;90.46
40245;BME280;25963;42.694;23.600;2023-02-11T00:34:03;96902.78;;;-8.18;90.31
40245;BME280;25963;42.694;23.600;2023-02-11T00:36:29;96913.47;;;-8.08;90.78
40245;BME280;25963;42.694;23.600;2023-02-11T00:38:56;96909.19;;;-8.08;91.25
40245;BME280;25963;42.694;23.600;2023-02-11T00:41:22;96903.50;;;-8.14;92.15
40245;BME280;25963;42.694;23.600;2023-02-11T00:43:49;96914.44;;;-8.11;90.81
40245;BME280;25963;42.694;23.600;2023-02-11T00:46:15;96911.38;;;-8.19;90.69
40245;BME280;25963;42.694;23.600;2023-02-11T00:48:40;96905.97;;;-8.35;91.86
40245;BME280;25963;42.694;23.600;2023-02-11T00:51:05;96910.81;;;-8.27;91.05
40245;BME280;25963;42.694;23.600;2023-02-11T00:53:32;96898.94;;;-8.28;90.04
40245;BME280;25963;42.694;23.600;2023-02-11T00:55:57;96898.25;;;-8.33;90.84
40245;BME280;25963;42.694;23.600;2023-02-11T00:58:23;96889.63;;;-8.31;90.12
40245;BME280;25963;42.694;23.600;2023-02-11T01:00:48;96889.25;;;-8.42;91.44
40245;BME280;25963;42.694;23.600;2023-02-11T01:03:14;96898.75;;;-8.45;91.12
40245;BME280;25963;42.694;23.600;2023-02-11T01:05:39;96893.53;;;-8.42;90.76
40245;BME280;25963;42.694;23.600;2023-02-11T01:08:05;96891.69;;;-8.39;90.42
40245;BME280;25963;42.694;23.600;2023-02-11T01:10:31;96883.53;;;-8.48;90.37
40245;BME280;25963;42.694;23.600;2023-02-11T01:12:57;96881.13;;;-8.53;89.45
40245;BME280;25963;42.694;23.600;2023-02-11T01:15:22;96890.38;;;-8.49;88.73
40245;BME280;25963;42.694;23.600;2023-02-11T01:17:48;96887.19;;;-8.56;88.55
40245;BME280;25963;42.694;23.600;2023-02-11T01:20:18;96888.44;;;-8.88;89.46
40245;BME280;25963;42.694;23.600;2023-02-11T01:22:43;96882.06;;;-8.78;90.48
40245;BME280;25963;42.694;23.600;2023-02-11T01:25:09;96882.50;;;-8.66;90.19
40245;BME280;25963;42.694;23.600;2023-02-11T01:27:35;96876.94;;;-8.78;90.93
40245;BME280;25963;42.694;23.600;2023-02-11T01:30:03;96881.47;;;-8.62;90.82
40245;BME280;25963;42.694;23.600;2023-02-11T01:32:29;96884.50;;;-8.75;90.65
40245;BME280;25963;42.694;23.600;2023-02-11T01:34:54;96875.00;;;-8.71;90.10
40245;BME280;25963;42.694;23.600;2023-02-11T01:37:19;96879.84;;;-8.87;90.32
40245;BME280;25963;42.694;23.600;2023-02-11T01:39:45;96883.34;;;-8.89;90.93
40245;BME280;25963;42.694;23.600;2023-02-11T01:42:15;96886.72;;;-9.12;91.66
40245;BME280;25963;42.694;23.600;2023-02-11T01:44:40;96882.81;;;-9.21;92.74
40245;BME280;25963;42.694;23.600;2023-02-11T01:47:06;96882.97;;;-9.02;92.17
40245;BME280;25963;42.694;23.600;2023-02-11T01:49:34;96881.69;;;-8.90;91.45
40245;BME280;25963;42.694;23.600;2023-02-11T01:52:11;96882.78;;;-8.98;92.09
40245;BME280;25963;42.694;23.600;2023-02-11T01:54:45;96875.75;;;-8.91;92.36
40245;BME280;25963;42.694;23.600;2023-02-11T01:57:32;96879.97;;;-8.90;91.00
40245;BME280;25963;42.694;23.600;2023-02-11T02:00:17;96876.38;;;-8.86;89.83
40245;BME280;25963;42.694;23.600;2023-02-11T02:03:08;96873.22;;;-8.92;91.41
40245;BME280;25963;42.694;23.600;2023-02-11T02:06:03;96879.41;;;-8.98;89.92
40245;BME280;25963;42.694;23.600;2023-02-11T02:09:08;96874.84;;;-8.90;89.23
40245;BME280;25963;42.694;23.600;2023-02-11T02:11:36;96867.19;;;-8.90;89.56
40245;BME280;25963;42.694;23.600;2023-02-11T02:14:01;96870.69;;;-8.92;89.58
40245;BME280;25963;42.694;23.600;2023-02-11T02:16:35;96857.41;;;-9.02;88.67
40245;BME280;25963;42.694;23.600;2023-02-11T02:25:42;96861.91;;;-9.09;91.29
40245;BME280;25963;42.694;23.600;2023-02-11T02:31:18;96867.97;;;-9.11;93.43
40245;BME280;25963;42.694;23.600;2023-02-11T02:33:55;96867.75;;;-9.05;92.01
40245;BME280;25963;42.694;23.600;2023-02-11T02:36:39;96862.75;;;-9.08;90.81
40245;BME280;25963;42.694;23.600;2023-02-11T02:39:36;96874.50;;;-9.04;90.63
40245;BME280;25963;42.694;23.600;2023-02-11T02:42:03;96875.41;;;-9.05;90.77
40245;BME280;25963;42.694;23.600;2023-02-11T02:44:29;96864.63;;;-9.13;90.72
40245;BME280;25963;42.694;23.600;2023-02-11T02:46:55;96871.50;;;-9.15;90.36
40245;BME280;25963;42.694;23.600;2023-02-11T02:49:20;96867.28;;;-9.16;90.35
40245;BME280;25963;42.694;23.600;2023-02-11T03:08:52;96858.19;;;-9.49;90.72
40245;BME280;25963;42.694;23.600;2023-02-11T03:11:17;96862.81;;;-9.58;90.62
40245;BME280;25963;42.694;23.600;2023-02-11T03:13:45;96881.69;;;-9.62;91.16
40245;BME280;25963;42.694;23.600;2023-02-11T03:16:17;96880.22;;;-9.70;92.75
40245;BME280;25963;42.694;23.600;2023-02-11T03:18:48;96882.13;;;-9.76;94.33
40245;BME280;25963;42.694;23.600;2023-02-11T03:21:15;96879.16;;;-9.89;96.34
40245;BME280;25963;42.694;23.600;2023-02-11T03:23:46;96870.09;;;-9.73;96.04
40245;BME280;25963;42.694;23.600;2023-02-11T03:26:22;96880.09;;;-9.67;96.73
40245;BME280;25963;42.694;23.600;2023-02-11T03:31:24;96886.94;;;-9.67;95.12
40245;BME280;25963;42.694;23.600;2023-02-11T03:34:14;96872.03;;;-9.79;95.04
40245;BME280;25963;42.694;23.600;2023-02-11T03:37:43;96891.72;;;-9.83;95.26
40245;BME280;25963;42.694;23.600;2023-02-11T03:39:40;96886.72;;;-9.86;95.70
40245;BME280;25963;42.694;23.600;2023-02-11T03:42:10;96879.28;;;-9.92;96.85
40245;BME280;25963;42.694;23.600;2023-02-11T03:44:42;96877.69;;;-9.96;97.93
40245;BME280;25963;42.694;23.600;2023-02-11T03:47:11;96883.97;;;-10.06;97.00
40245;BME280;25963;42.694;23.600;2023-02-11T03:49:41;96886.66;;;-10.11;96.92
40245;BME280;25963;42.694;23.600;2023-02-11T03:52:07;96886.13;;;-10.21;96.77
40245;BME280;25963;42.694;23.600;2023-02-11T03:54:35;96880.84;;;-10.41;97.61
40245;BME280;25963;42.694;23.600;2023-02-11T03:57:03;96884.50;;;-10.23;97.08
40245;BME280;25963;42.694;23.600;2023-02-11T03:59:28;96885.28;;;-10.20;96.99
40245;BME280;25963;42.694;23.600;2023-02-11T04:01:54;96876.53;;;-10.13;96.59
40245;BME280;25963;42.694;23.600;2023-02-11T04:04:20;96876.31;;;-10.06;95.15
40245;BME280;25963;42.694;23.600;2023-02-11T04:06:45;96881.41;;;-10.05;94.38
40245;BME280;25963;42.694;23.600;2023-02-11T04:09:12;96887.84;;;-10.46;96.06
40245;BME280;25963;42.694;23.600;2023-02-11T04:11:39;96886.72;;;-10.66;96.82
40245;BME280;25963;42.694;23.600;2023-02-11T04:14:04;96882.63;;;-10.71;98.93
40245;BME280;25963;42.694;23.600;2023-02-11T04:16:29;96881.94;;;-10.48;98.34
40245;BME280;25963;42.694;23.600;2023-02-11T04:18:56;96870.34;;;-10.59;98.68
40245;BME280;25963;42.694;23.600;2023-02-11T04:21:21;96869.72;;;-10.39;97.62
40245;BME280;25963;42.694;23.600;2023-02-11T04:23:47;96881.13;;;-10.50;97.20
40245;BME280;25963;42.694;23.600;2023-02-11T04:26:13;96876.13;;;-10.53;97.95
40245;BME280;25963;42.694;23.600;2023-02-11T04:28:38;96878.41;;;-10.44;97.33
40245;BME280;25963;42.694;23.600;2023-02-11T04:31:04;96869.56;;;-10.61;97.60
40245;BME280;25963;42.694;23.600;2023-02-11T04:33:29;96875.81;;;-10.71;98.49
40245;BME280;25963;42.694;23.600;2023-02-11T04:35:55;96869.13;;;-10.75;98.36
40245;BME280;25963;42.694;23.600;2023-02-11T04:38:20;96869.66;;;-10.64;99.56
40245;BME280;25963;42.694;23.600;2023-02-11T04:40:48;96869.19;;;-10.48;98.28
40245;BME280;25963;42.694;23.600;2023-02-11T04:43:13;96867.88;;;-10.33;97.95
40245;BME280;25963;42.694;23.600;2023-02-11T04:45:39;96862.81;;;-10.35;96.82
40245;BME280;25963;42.694;23.600;2023-02-11T04:48:04;96876.91;;;-10.25;95.79
40245;BME280;25963;42.694;23.600;2023-02-11T04:50:30;96872.19;;;-10.36;95.22
40245;BME280;25963;42.694;23.600;2023-02-11T04:52:55;96866.00;;;-10.28;95.27
40245;BME280;25963;42.694;23.600;2023-02-11T04:55:21;96877.63;;;-10.20;95.17
40245;BME280;25963;42.694;23.600;2023-02-11T04:57:46;96876.72;;;-10.19;94.49
40245;BME280;25963;42.694;23.600;2023-02-11T05:00:12;96863.41;;;-10.27;94.49
40245;BME280;25963;42.694;23.600;2023-02-11T05:02:38;96870.16;;;-10.26;94.62
40245;BME280;25963;42.694;23.600;2023-02-11T05:05:03;96877.34;;;-10.37;94.78
40245;BME280;25963;42.694;23.600;2023-02-11T05:07:29;96866.34;;;-10.39;94.38
40245;BME280;25963;42.694;23.600;2023-02-11T05:09:55;96871.34;;;-10.36;94.32
40245;BME280;25963;42.694;23.600;2023-02-11T05:12:20;96854.28;;;-10.34;95.10
40245;BME280;25963;42.694;23.600;2023-02-11T05:14:46;96862.56;;;-10.27;93.88
40245;BME280;25963;42.694;23.600;2023-02-11T05:17:11;96860.63;;;-10.47;94.86
40245;BME280;25963;42.694;23.600;2023-02-11T05:19:37;96860.97;;;-10.58;96.04
40245;BME280;25963;42.694;23.600;2023-02-11T05:22:02;96858.75;;;-10.41;95.64
40245;BME280;25963;42.694;23.600;2023-02-11T05:24:28;96860.34;;;-10.38;95.75
40245;BME280;25963;42.694;23.600;2023-02-11T05:26:54;96855.81;;;-10.28;95.08
40245;BME280;25963;42.694;23.600;2023-02-11T05:29:19;96859.28;;;-10.31;95.80
40245;BME280;25963;42.694;23.600;2023-02-11T05:31:44;96867.81;;;-10.32;96.12
40245;BME280;25963;42.694;23.600;2023-02-11T05:34:10;96861.59;;;-10.25;95.46
40245;BME280;25963;42.694;23.600;2023-02-11T05:36:35;96853.69;;;-10.42;95.77
40245;BME280;25963;42.694;23.600;2023-02-11T05:39:01;96861.09;;;-10.35;95.69
40245;BME280;25963;42.694;23.600;2023-02-11T05:41:26;96856.53;;;-10.51;96.75
40245;BME280;25963;42.694;23.600;2023-02-11T05:43:51;96862.97;;;-10.40;95.90
40245;BME280;25963;42.694;23.600;2023-02-11T05:46:17;96863.00;;;-10.41;95.80
40245;BME280;25963;42.694;23.600;2023-02-11T05:48:42;96858.41;;;-10.30;95.54
40245;BME280;25963;42.694;23.600;2023-02-11T05:51:08;96865.06;;;-10.26;94.25
40245;BME280;25963;42.694;23.600;2023-02-11T05:53:33;96865.72;;;-10.21;94.12
40245;BME280;25963;42.694;23.600;2023-02-11T05:55:59;96863.03;;;-10.16;94.56
40245;BME280;25963;42.694;23.600;2023-02-11T05:58:25;96862.88;;;-10.12;94.51
40245;BME280;25963;42.694;23.600;2023-02-11T06:00:50;96863.91;;;-9.66;95.42
40245;BME280;25963;42.694;23.600;2023-02-11T06:03:16;96868.53;;;-9.03;92.85
40245;BME280;25963;42.694;23.600;2023-02-11T06:05:42;96867.66;;;-8.36;87.19
40245;BME280;25963;42.694;23.600;2023-02-11T06:08:08;96871.19;;;-7.96;81.34
40245;BME280;25963;42.694;23.600;2023-02-11T06:10:33;96870.81;;;-7.26;79.85
40245;BME280;25963;42.694;23.600;2023-02-11T06:13:00;96864.88;;;-6.89;74.43
40245;BME280;25963;42.694;23.600;2023-02-11T06:15:25;96864.13;;;-6.91;73.63
40245;BME280;25963;42.694;23.600;2023-02-11T06:17:51;96879.94;;;-6.62;74.11
40245;BME280;25963;42.694;23.600;2023-02-11T06:20:16;96879.50;;;-6.34;72.15
40245;BME280;25963;42.694;23.600;2023-02-11T06:22:42;96873.34;;;-6.12;71.28
40245;BME280;25963;42.694;23.600;2023-02-11T06:25:08;96866.22;;;-5.72;70.39
40245;BME280;25963;42.694;23.600;2023-02-11T06:27:35;96865.56;;;-5.41;69.65
40245;BME280;25963;42.694;23.600;2023-02-11T06:30:00;96866.09;;;-5.19;68.01
40245;BME280;25963;42.694;23.600;2023-02-11T06:32:26;96866.84;;;-4.99;67.08
40245;BME280;25963;42.694;23.600;2023-02-11T06:34:52;96874.63;;;-5.01;67.89
40245;BME280;25963;42.694;23.600;2023-02-11T06:37:17;96872.81;;;-4.99;67.52
40245;BME280;25963;42.694;23.600;2023-02-11T06:39:44;96875.72;;;-5.22;69.72
40245;BME280;25963;42.694;23.600;2023-02-11T06:42:09;96874.19;;;-5.27;70.67
40245;BME280;25963;42.694;23.600;2023-02-11T06:44:35;96864.34;;;-5.52;72.55
40245;BME280;25963;42.694;23.600;2023-02-11T06:47:00;96861.69;;;-5.50;74.94
40245;BME280;25963;42.694;23.600;2023-02-11T06:49:26;96869.31;;;-5.66;76.56
40245;BME280;25963;42.694;23.600;2023-02-11T06:51:51;96870.16;;;-5.48;78.56
40245;BME280;25963;42.694;23.600;2023-02-11T06:54:16;96867.97;;;-5.56;78.55
40245;BME280;25963;42.694;23.600;2023-02-11T06:56:42;96873.44;;;-5.62;80.53
40245;BME280;25963;42.694;23.600;2023-02-11T06:59:07;96872.75;;;-6.00;82.42
40245;BME280;25963;42.694;23.600;2023-02-11T07:01:33;96873.19;;;-5.92;84.18
40245;BME280;25963;42.694;23.600;2023-02-11T07:03:58;96861.03;;;-5.71;87.67
40245;BME280;25963;42.694;23.600;2023-02-11T07:06:25;96865.63;;;-5.60;84.84
40245;BME280;25963;42.694;23.600;2023-02-11T07:08:54;96860.63;;;-5.46;86.09
40245;BME280;25963;42.694;23.600;2023-02-11T07:11:25;96865.56;;;-5.59;83.49
40245;BME280;25963;42.694;23.600;2023-02-11T07:13:53;96872.59;;;-5.62;84.49
40245;BME280;25963;42.694;23.600;2023-02-11T07:16:19;96866.53;;;-5.44;85.62
40245;BME280;25963;42.694;23.600;2023-02-11T07:18:45;96865.09;;;-5.32;85.24
40245;BME280;25963;42.694;23.600;2023-02-11T07:21:12;96858.34;;;-5.35;84.40
40245;BME280;25963;42.694;23.600;2023-02-11T07:23:39;96857.63;;;-5.21;85.85
40245;BME280;25963;42.694;23.600;2023-02-11T07:26:10;96855.84;;;-5.03;87.91
40245;BME280;25963;42.694;23.600;2023-02-11T07:28:37;96857.88;;;-4.92;84.77
40245;BME280;25963;42.694;23.600;2023-02-11T07:31:29;96858.69;;;-4.76;nan
40245;BME280;25963;42.694;23.600;2023-02-11T07:33:57;96853.91;;;-4.66;84.48
40245;BME280;25963;42.694;23.600;2023-02-11T07:36:24;96855.06;;;-4.56;84.23
40245;BME280;25963;42.694;23.600;2023-02-11T07:38:51;96852.75;;;-4.45;84.84
40245;BME280;25963;42.694;23.600;2023-02-11T07:41:19;96845.91;;;-4.46;83.55
40245;BME280;25963;42.694;23.600;2023-02-11T07:43:44;96848.84;;;-4.36;82.68
40245;BME280;25963;42.694;23.600;2023-02-11T07:46:19;96855.03;;;-4.08;81.00
40245;BME280;25963;42.694;23.600;2023-02-11T07:48:45;96831.84;;;-4.08;82.01
40245;BME280;25963;42.694;23.600;2023-02-11T07:53:41;96841.19;;;-3.61;78.98
40245;BME280;25963;42.694;23.600;2023-02-11T07:56:07;96839.19;;;-3.42;78.78
40245;BME280;25963;42.694;23.600;2023-02-11T07:58:33;96845.75;;;-3.22;77.97
40245;BME280;25963;42.694;23.600;2023-02-11T08:01:04;96835.34;;;-3.21;72.94
40245;BME280;25963;42.694;23.600;2023-02-11T08:03:31;96837.63;;;-3.30;74.05
40245;BME280;25963;42.694;23.600;2023-02-11T08:05:57;96846.34;;;-3.47;73.76
40245;BME280;25963;42.694;23.600;2023-02-11T08:08:25;96842.41;;;-3.53;74.80
40245;BME280;25963;42.694;23.600;2023-02-11T08:10:51;96840.03;;;-3.27;76.94
40245;BME280;25963;42.694;23.600;2023-02-11T08:13:17;96837.75;;;-3.03;79.57
40245;BME280;25963;42.694;23.600;2023-02-11T08:15:42;96833.84;;;-2.82;82.33
40245;BME280;25963;42.694;23.600;2023-02-11T08:18:07;96833.75;;;-2.80;80.80
40245;BME280;25963;42.694;23.600;2023-02-11T08:20:33;96822.03;;;-2.57;81.81
40245;BME280;25963;42.694;23.600;2023-02-11T08:22:58;96834.38;;;-2.21;75.81
40245;BME280;25963;42.694;23.600;2023-02-11T08:25:24;96830.50;;;-2.01;75.59
40245;BME280;25963;42.694;23.600;2023-02-11T08:27:49;96826.00;;;-1.85;79.32
40245;BME280;25963;42.694;23.600;2023-02-11T08:30:15;96825.13;;;-1.58;78.60
40245;BME280;25963;42.694;23.600;2023-02-11T08:32:40;96824.72;;;-1.39;72.27
40245;BME280;25963;42.694;23.600;2023-02-11T08:35:05;96829.97;;;-1.66;66.07
40245;BME280;25963;42.694;23.600;2023-02-11T08:37:33;96838.72;;;-1.94;70.93
40245;BME280;25963;42.694;23.600;2023-02-11T08:39:58;96831.41;;;-1.62;77.66
40245;BME280;25963;42.694;23.600;2023-02-11T08:42:24;96820.69;;;-1.43;74.25
40245;BME280;25963;42.694;23.600;2023-02-11T08:44:49;96822.97;;;-1.13;74.35
40245;BME280;25963;42.694;23.600;2023-02-11T08:47:14;96829.28;;;-1.17;67.38
40245;BME280;25963;42.694;23.600;2023-02-11T08:49:40;96830.63;;;-0.99;69.62
40245;BME280;25963;42.694;23.600;2023-02-11T08:52:07;96831.88;;;-1.04;65.27
40245;BME280;25963;42.694;23.600;2023-02-11T08:54:32;96833.34;;;-1.13;66.80
40245;BME280;25963;42.694;23.600;2023-02-11T08:56:58;96816.75;;;-0.98;72.05
40245;BME280;25963;42.694;23.600;2023-02-11T08:59:24;96824.00;;;-1.03;68.27
40245;BME280;25963;42.694;23.600;2023-02-11T09:01:50;96819.25;;;-1.34;65.52
40245;BME280;25963;42.694;23.600;2023-02-11T09:04:15;96815.91;;;-1.11;66.61
40245;BME280;25963;42.694;23.600;2023-02-11T09:06:41;96817.75;;;-0.75;72.08
40245;BME280;25963;42.694;23.600;2023-02-11T09:09:10;96811.66;;;-0.50;78.13
40245;BME280;25963;42.694;23.600;2023-02-11T09:11:35;96814.72;;;-0.32;77.69
40245;BME280;25963;42.694;23.600;2023-02-11T09:14:02;96819.63;;;-0.16;68.79
40245;BME280;25963;42.694;23.600;2023-02-11T09:16:29;96816.28;;;-0.42;69.82
40245;BME280;25963;42.694;23.600;2023-02-11T09:18:57;96809.84;;;-0.12;72.13
40245;BME280;25963;42.694;23.600;2023-02-11T09:21:22;96811.25;;;-0.19;64.31
40245;BME280;25963;42.694;23.600;2023-02-11T09:23:48;96814.09;;;0.13;66.12
40245;BME280;25963;42.694;23.600;2023-02-11T09:26:19;96802.22;;;0.33;69.49
40245;BME280;25963;42.694;23.600;2023-02-11T09:28:46;96812.31;;;0.60;61.77
40245;BME280;25963;42.694;23.600;2023-02-11T09:31:13;96805.94;;;0.53;56.96
40245;BME280;25963;42.694;23.600;2023-02-11T09:33:41;96794.88;;;0.62;60.20
40245;BME280;25963;42.694;23.600;2023-02-11T09:36:13;96798.19;;;0.64;55.24
40245;BME280;25963;42.694;23.600;2023-02-11T09:38:39;96781.09;;;0.95;65.96
40245;BME280;25963;42.694;23.600;2023-02-11T09:41:04;96776.94;;;1.15;58.94
40245;BME280;25963;42.694;23.600;2023-02-11T09:43:37;96780.47;;;1.48;57.91
40245;BME280;25963;42.694;23.600;2023-02-11T09:46:12;96771.22;;;1.55;55.60
40245;BME280;25963;42.694;23.600;2023-02-11T09:48:40;96771.50;;;1.73;54.17
40245;BME280;25963;42.694;23.600;2023-02-11T09:53:50;96747.66;;;1.68;54.58
40245;BME280;25963;42.694;23.600;2023-02-11T09:56:23;96758.13;;;1.45;52.06
40245;BME280;25963;42.694;23.600;2023-02-11T09:58:49;96758.06;;;1.68;52.99
40245;BME280;25963;42.694;23.600;2023-02-11T10:06:39;96737.38;;;1.98;53.17
40245;BME280;25963;42.694;23.600;2023-02-11T10:09:29;96723.16;;;2.23;56.33
40245;BME280;25963;42.694;23.600;2023-02-11T10:12:13;96717.44;;;2.29;51.25
40245;BME280;25963;42.694;23.600;2023-02-11T10:23:09;96705.06;;;2.01;52.33
40245;BME280;25963;42.694;23.600;2023-02-11T10:25:57;96689.19;;;2.04;50.09
40245;BME280;25963;42.694;23.600;2023-02-11T10:28:30;96681.50;;;2.54;50.57
40245;BME280;25963;42.694;23.600;2023-02-11T10:31:02;96677.50;;;2.50;48.82
40245;BME280;25963;42.694;23.600;2023-02-11T10:35:57;96669.69;;;2.50;47.04
40245;BME280;25963;42.694;23.600;2023-02-11T10:38:23;96652.41;;;2.80;50.09
40245;BME280;25963;42.694;23.600;2023-02-11T10:40:49;96656.50;;;2.72;46.87
40245;BME280;25963;42.694;23.600;2023-02-11T10:43:16;96645.03;;;2.94;47.83
40245;BME280;25963;42.694;23.600;2023-02-11T10:45:46;96634.88;;;3.01;48.26
40245;BME280;25963;42.694;23.600;2023-02-11T10:48:50;96626.16;;;3.31;51.03
40245;BME280;25963;42.694;23.600;2023-02-11T10:51:23;96615.72;;;3.60;47.72
40245;BME280;25963;42.694;23.600;2023-02-11T10:54:09;96612.94;;;3.81;42.79
40245;BME280;25963;42.694;23.600;2023-02-11T10:56:45;96602.41;;;3.44;48.42
40245;BME280;25963;42.694;23.600;2023-02-11T10:59:30;96598.97;;;3.43;44.62
40245;BME280;25963;42.694;23.600;2023-02-11T11:02:03;96603.19;;;2.96;44.63
40245;BME280;25963;42.694;23.600;2023-02-11T11:04:44;96595.66;;;3.61;44.50
40245;BME280;25963;42.694;23.600;2023-02-11T11:10:05;96593.03;;;3.90;45.02
40245;BME280;25963;42.694;23.600;2023-02-11T11:17:34;96575.69;;;4.36;46.39
40245;BME280;25963;42.694;23.600;2023-02-11T11:20:13;96584.97;;;4.48;44.15
40245;BME280;25963;42.694;23.600;2023-02-11T11:22:39;96583.06;;;4.50;44.19
40245;BME280;25963;42.694;23.600;2023-02-11T11:25:20;96576.56;;;4.82;42.64
40245;BME280;25963;42.694;23.600;2023-02-11T11:27:54;96567.09;;;4.99;42.30
40245;BME280;25963;42.694;23.600;2023-02-11T11:30:24;96581.75;;;4.92;42.10
40245;BME280;25963;42.694;23.600;2023-02-11T11:32:51;96574.63;;;4.84;40.57
40245;BME280;25963;42.694;23.600;2023-02-11T11:35:26;96568.72;;;4.27;40.81
40245;BME280;25963;42.694;23.600;2023-02-11T11:38:03;96554.28;;;4.78;43.75
40245;BME280;25963;42.694;23.600;2023-02-11T11:40:31;96552.50;;;4.96;44.53
40245;BME280;25963;42.694;23.600;2023-02-11T11:43:06;96551.41;;;5.17;42.18
40245;BME280;25963;42.694;23.600;2023-02-11T11:45:52;96548.88;;;5.25;45.32
40245;BME280;25963;42.694;23.600;2023-02-11T11:48:41;96548.50;;;5.20;43.15
40245;BME280;25963;42.694;23.600;2023-02-11T11:51:12;96539.31;;;5.34;45.17
40245;BME280;25963;42.694;23.600;2023-02-11T11:53:39;96536.38;;;5.37;41.19
40245;BME280;25963;42.694;23.600;2023-02-11T11:56:10;96533.25;;;5.33;42.67
40245;BME280;25963;42.694;23.600;2023-02-11T11:58:37;96529.53;;;5.62;43.36
40245;BME280;25963;42.694;23.600;2023-02-11T12:01:06;96524.69;;;5.49;39.58
40245;BME280;25963;42.694;23.600;2023-02-11T12:12:41;96505.22;;;5.69;40.69
40245;BME280;25963;42.694;23.600;2023-02-11T12:24:13;96487.91;;;6.03;38.83
40245;BME280;25963;42.694;23.600;2023-02-11T12:30:23;96476.00;;;5.82;40.05
40245;BME280;25963;42.694;23.600;2023-02-11T12:35:37;96463.44;;;6.20;39.95
40245;BME280;25963;42.694;23.600;2023-02-11T12:38:27;96465.06;;;6.21;37.94
40245;BME280;25963;42.694;23.600;2023-02-11T12:43:35;96452.69;;;6.39;37.31
40245;BME280;25963;42.694;23.600;2023-02-11T12:56:36;96445.63;;;5.63;36.24
40245;BME280;25963;42.694;23.600;2023-02-11T12:59:07;96441.31;;;5.88;38.02
40245;BME280;25963;42.694;23.600;2023-02-11T13:01:38;96432.59;;;6.06;35.49
40245;BME280;25963;42.694;23.600;2023-02-11T13:04:12;96437.88;;;6.22;36.79
40245;BME280;25963;42.694;23.600;2023-02-11T13:06:54;96429.03;;;6.15;35.73
40245;BME280;25963;42.694;23.600;2023-02-11T13:09:25;96432.78;;;6.12;35.62
40245;BME280;25963;42.694;23.600;2023-02-11T13:11:55;96428.16;;;6.06;37.52
40245;BME280;25963;42.694;23.600;2023-02-11T13:14:28;96420.13;;;6.00;35.07
40245;BME280;25963;42.694;23.600;2023-02-11T13:16:55;96411.03;;;6.20;37.41
40245;BME280;25963;42.694;23.600;2023-02-11T13:19:43;96418.09;;;6.28;37.56
40245;BME280;25963;42.694;23.600;2023-02-11T13:22:18;96409.84;;;6.06;35.48
40245;BME280;25963;42.694;23.600;2023-02-11T13:30:17;96409.03;;;6.06;36.50
40245;BME280;25963;42.694;23.600;2023-02-11T13:33:15;96400.59;;;6.36;35.55
40245;BME280;25963;42.694;23.600;2023-02-11T13:38:30;96399.53;;;6.13;34.14
40245;BME280;25963;42.694;23.600;2023-02-11T13:41:23;96400.03;;;6.08;35.32
40245;BME280;25963;42.694;23.600;2023-02-11T13:44:02;96404.84;;;6.46;35.74
40245;BME280;25963;42.694;23.600;2023-02-11T13:46:50;96406.16;;;6.42;34.58
40245;BME280;25963;42.694;23.600;2023-02-11T13:49:40;96395.66;;;6.25;34.73
40245;BME280;25963;42.694;23.600;2023-02-11T13:52:35;96398.13;;;6.35;34.14
40245;BME280;25963;42.694;23.600;2023-02-11T13:55:22;96392.75;;;6.45;34.97
40245;BME280;25963;42.694;23.600;2023-02-11T14:09:09;96365.34;;;6.14;33.91
40245;BME280;25963;42.694;23.600;2023-02-11T14:12:15;96369.56;;;6.15;34.62
40245;BME280;25963;42.694;23.600;2023-02-11T14:15:17;96370.91;;;6.20;33.94
40245;BME280;25963;42.694;23.600;2023-02-11T14:17:43;96371.72;;;6.12;34.33
40245;BME280;25963;42.694;23.600;2023-02-11T14:20:32;96360.94;;;6.31;34.00
40245;BME280;25963;42.694;23.600;2023-02-11T14:22:59;96361.19;;;5.96;34.33
40245;BME280;25963;42.694;23.600;2023-02-11T14:25:25;96357.53;;;5.88;34.21
40245;BME280;25963;42.694;23.600;2023-02-11T14:28:14;96357.72;;;5.95;34.66
40245;BME280;25963;42.694;23.600;2023-02-11T14:30:44;96348.78;;;6.06;34.20
40245;BME280;25963;42.694;23.600;2023-02-11T14:36:16;96352.56;;;5.69;35.19
40245;BME280;25963;42.694;23.600;2023-02-11T14:38:51;96354.28;;;5.52;35.47
40245;BME280;25963;42.694;23.600;2023-02-11T14:41:31;96364.28;;;5.65;35.53
40245;BME280;25963;42.694;23.600;2023-02-11T14:44:02;96360.88;;;5.30;35.84
40245;BME280;25963;42.694;23.600;2023-02-11T14:46:28;96358.88;;;5.24;35.94
40245;BME280;25963;42.694;23.600;2023-02-11T14:48:57;96371.63;;;5.01;36.30
40245;BME280;25963;42.694;23.600;2023-02-11T14:51:27;96359.88;;;4.79;36.63
40245;BME280;25963;42.694;23.600;2023-02-11T14:54:00;96342.63;;;4.68;36.99
40245;BME280;25963;42.694;23.600;2023-02-11T14:56:29;96365.16;;;4.87;37.66
40245;BME280;25963;42.694;23.600;2023-02-11T14:58:59;96352.97;;;4.52;39.01
40245;BME280;25963;42.694;23.600;2023-02-11T15:03:57;96354.91;;;4.50;38.30
40245;BME280;25963;42.694;23.600;2023-02-11T15:09:12;96354.97;;;4.22;39.73